Time;durP1;ratioP1;P1;durP2;ratioP2;P2;SDS_P1;SDS_P2;PMS_P1;PMS_P2;Temp;Humidity;BMP_temperature;BMP_pressure;BME280_temperature;BME280_humidity;BME280_pressure;Samples;Min_cycle;Max_cycle;Signal;HPM_P1;HPM_P2
2023/04/25 00:01:12;;;;;;;3.20;2.90;;;;;;;;;;5092363;28;20208;-74
2023/04/25 00:03:40;;;;;;;2.83;2.63;;;;;;;;;;5092726;28;20628;-75
2023/04/25 00:06:08;;;;;;;3.67;2.93;;;;;;;;;;5092866;28;20209;-74
2023/04/25 00:08:35;;;;;;;4.53;2.73;;;;;;;;;;5091690;28;20260;-74
2023/04/25 00:11:02;;;;;;;2.97;2.67;;;;;;;;;;5092484;28;20204;-74
2023/04/25 00:13:30;;;;;;;4.37;2.70;;;;;;;;;;5092142;28;20260;-74
2023/04/25 00:15:57;;;;;;;4.37;3.10;;;;;;;;;;5092292;28;20205;-75
2023/04/25 00:18:28;;;;;;;4.63;2.87;;;;;;;;;;5092114;28;20729;-74
2023/04/25 00:20:56;;;;;;;3.20;2.90;;;;;;;;;;5091815;28;20228;-74
2023/04/25 00:23:23;;;;;;;4.70;3.00;;;;;;;;;;5092329;28;20220;-75
2023/04/25 00:25:51;;;;;;;3.43;3.10;;;;;;;;;;5092067;28;20674;-74
2023/04/25 00:28:18;;;;;;;4.13;3.10;;;;;;;;;;5092258;28;20193;-75
2023/04/25 00:30:46;;;;;;;3.40;2.90;;;;;;;;;;5092042;28;20278;-73
2023/04/25 00:33:13;;;;;;;3.83;3.10;;;;;;;;;;5091996;28;20205;-74
2023/04/25 00:35:40;;;;;;;4.87;2.77;;;;;;;;;;5091897;28;20625;-74
2023/04/25 00:38:08;;;;;;;3.70;2.77;;;;;;;;;;5092521;28;20641;-74
2023/04/25 00:40:35;;;;;;;4.17;2.87;;;;;;;;;;5073873;28;20286;-75
2023/04/25 00:43:02;;;;;;;4.00;2.97;;;;;;;;;;5092044;28;20236;-74
2023/04/25 00:45:30;;;;;;;4.13;3.20;;;;;;;;;;5091999;28;20255;-74
2023/04/25 00:47:57;;;;;;;4.20;3.20;;;;;;;;;;5091931;28;20200;-74
2023/04/25 00:50:25;;;;;;;3.53;3.00;;;;;;;;;;5092091;28;20760;-73
2023/04/25 00:52:52;;;;;;;3.47;3.17;;;;;;;;;;5073711;28;20240;-75
2023/04/25 00:55:20;;;;;;;4.90;3.20;;;;;;;;;;5092180;28;20319;-74
2023/04/25 00:57:47;;;;;;;4.90;2.97;;;;;;;;;;5073407;28;20232;-74
2023/04/25 01:00:15;;;;;;;5.87;3.17;;;;;;;;;;5091515;28;20217;-74
2023/04/25 01:02:42;;;;;;;3.80;3.20;;;;;;;;;;5091458;28;20750;-74
2023/04/25 01:05:10;;;;;;;3.77;3.00;;;;;;;;;;5091688;28;20204;-74
2023/04/25 01:07:37;;;;;;;5.87;3.47;;;;;;;;;;5091090;28;20212;-74
2023/04/25 01:10:06;;;;;;;5.27;3.20;;;;;;;;;;5091253;28;20702;-74
2023/04/25 01:12:33;;;;;;;2.77;2.57;;;;;;;;;;5091152;28;20662;-75
2023/04/25 01:15:00;;;;;;;5.83;2.97;;;;;;;;;;5091396;28;20690;-74
2023/04/25 01:17:28;;;;;;;3.43;3.10;;;;;;;;;;5091251;28;20207;-74
2023/04/25 01:19:56;;;;;;;7.33;3.13;;;;;;;;;;5090829;28;20225;-74
2023/04/25 01:22:23;;;;;;;4.43;3.10;;;;;;;;;;5090742;28;20277;-73
2023/04/25 01:24:51;;;;;;;4.43;3.17;;;;;;;;;;5073042;28;20294;-74
2023/04/25 01:27:18;;;;;;;5.47;3.10;;;;;;;;;;5091014;28;20236;-75
2023/04/25 01:29:46;;;;;;;5.83;3.30;;;;;;;;;;5091112;28;20224;-74
2023/04/25 01:32:14;;;;;;;3.87;3.10;;;;;;;;;;5090976;28;20211;-74
2023/04/25 01:34:41;;;;;;;3.40;2.70;;;;;;;;;;5090572;28;20282;-74
2023/04/25 01:37:08;;;;;;;3.53;3.03;;;;;;;;;;5090950;28;20638;-73
2023/04/25 01:39:36;;;;;;;2.80;2.60;;;;;;;;;;5090749;28;20232;-74
2023/04/25 01:42:03;;;;;;;3.73;2.90;;;;;;;;;;5090649;28;20696;-74
2023/04/25 01:44:30;;;;;;;3.43;2.70;;;;;;;;;;5090443;28;20240;-74
2023/04/25 01:46:58;;;;;;;4.07;2.70;;;;;;;;;;5090336;28;20211;-73
2023/04/25 01:49:25;;;;;;;3.63;2.90;;;;;;;;;;5090131;28;20726;-74
2023/04/25 01:51:53;;;;;;;2.80;2.60;;;;;;;;;;5090974;28;20299;-75
2023/04/25 01:54:20;;;;;;;5.13;2.80;;;;;;;;;;5090619;28;20698;-74
2023/04/25 01:56:51;;;;;;;3.57;2.90;;;;;;;;;;5090733;28;20204;-72
2023/04/25 01:59:21;;;;;;;5.13;2.90;;;;;;;;;;5090901;28;20221;-74
2023/04/25 02:01:48;;;;;;;4.47;2.70;;;;;;;;;;5090770;28;20589;-74
2023/04/25 02:04:16;;;;;;;4.40;3.00;;;;;;;;;;5073593;28;20547;-74
2023/04/25 02:06:43;;;;;;;3.67;3.20;;;;;;;;;;5090736;28;20217;-74
2023/04/25 02:09:11;;;;;;;5.77;3.03;;;;;;;;;;5090677;28;20267;-74
2023/04/25 02:11:38;;;;;;;5.77;2.93;;;;;;;;;;5090707;28;20705;-75
2023/04/25 02:14:05;;;;;;;4.03;2.83;;;;;;;;;;5090317;28;20270;-74
2023/04/25 02:16:33;;;;;;;3.20;2.90;;;;;;;;;;5090490;28;20201;-74
2023/04/25 02:19:00;;;;;;;5.20;2.97;;;;;;;;;;5090526;28;20221;-74
2023/04/25 02:21:27;;;;;;;7.23;3.43;;;;;;;;;;5090087;28;20323;-74
2023/04/25 02:23:55;;;;;;;2.77;2.50;;;;;;;;;;5090261;28;20738;-74
2023/04/25 02:26:23;;;;;;;3.83;2.47;;;;;;;;;;5090569;28;20240;-74
2023/04/25 02:28:52;;;;;;;3.10;2.47;;;;;;;;;;5072053;28;20200;-73
2023/04/25 02:31:19;;;;;;;5.50;2.63;;;;;;;;;;5090095;28;20671;-74
2023/04/25 02:33:47;;;;;;;3.77;2.43;;;;;;;;;;5093814;28;20258;-75
2023/04/25 02:36:15;;;;;;;3.60;2.47;;;;;;;;;;5094239;28;20231;-74
2023/04/25 02:38:42;;;;;;;4.00;2.47;;;;;;;;;;5094139;28;20888;-74
2023/04/25 02:41:09;;;;;;;5.03;2.73;;;;;;;;;;5076463;28;20236;-73
2023/04/25 02:43:36;;;;;;;2.90;2.43;;;;;;;;;;5094033;28;20247;-73
2023/04/25 02:46:04;;;;;;;3.70;2.70;;;;;;;;;;5093418;28;20215;-74
2023/04/25 02:48:31;;;;;;;4.93;2.87;;;;;;;;;;5093644;28;20287;-74
2023/04/25 02:50:58;;;;;;;6.57;2.87;;;;;;;;;;5093777;28;20215;-74
2023/04/25 02:53:26;;;;;;;5.17;3.00;;;;;;;;;;5093792;28;20573;-73
2023/04/25 02:55:54;;;;;;;5.13;2.97;;;;;;;;;;5093535;28;20278;-73
2023/04/25 02:58:21;;;;;;;4.80;2.80;;;;;;;;;;5093729;28;20209;-74
2023/04/25 03:00:48;;;;;;;5.73;2.97;;;;;;;;;;5093430;28;20229;-74
2023/04/25 03:03:17;;;;;;;4.43;3.00;;;;;;;;;;5093571;28;20650;-74
2023/04/25 03:05:46;;;;;;;3.33;2.80;;;;;;;;;;5093571;28;20201;-74
2023/04/25 03:08:13;;;;;;;3.70;3.00;;;;;;;;;;5093711;28;20213;-74
2023/04/25 03:10:41;;;;;;;5.03;2.63;;;;;;;;;;5093504;28;20311;-75
2023/04/25 03:13:08;;;;;;;3.37;2.93;;;;;;;;;;5093709;28;20650;-74
2023/04/25 03:15:36;;;;;;;4.07;3.00;;;;;;;;;;5093086;28;20320;-74
2023/04/25 03:18:03;;;;;;;3.73;2.77;;;;;;;;;;5093446;28;20296;-74
2023/04/25 03:20:31;;;;;;;3.43;3.10;;;;;;;;;;5093329;28;20266;-73
2023/04/25 03:22:58;;;;;;;4.50;3.20;;;;;;;;;;5083844;28;20226;-72
2023/04/25 03:25:25;;;;;;;3.23;2.93;;;;;;;;;;5073440;28;20338;-73
2023/04/25 03:27:53;;;;;;;3.00;2.70;;;;;;;;;;5072958;28;20210;-74
2023/04/25 03:30:20;;;;;;;5.40;2.83;;;;;;;;;;5072976;28;20265;-73
2023/04/25 03:32:47;;;;;;;3.77;3.40;;;;;;;;;;5072709;28;20315;-73
2023/04/25 03:35:15;;;;;;;3.57;3.10;;;;;;;;;;5072996;28;20225;-73
2023/04/25 03:37:45;;;;;;;4.27;3.20;;;;;;;;;;5055603;28;20656;-74
2023/04/25 03:40:13;;;;;;;3.60;3.30;;;;;;;;;;5072583;28;20645;-74
2023/04/25 03:42:40;;;;;;;6.97;3.50;;;;;;;;;;5072626;28;20300;-74
2023/04/25 03:45:11;;;;;;;4.03;3.20;;;;;;;;;;5054367;28;20213;-74
2023/04/25 03:47:38;;;;;;;6.60;3.20;;;;;;;;;;5054925;28;20240;-74
2023/04/25 03:50:06;;;;;;;3.07;2.70;;;;;;;;;;5072122;28;20228;-74
2023/04/25 03:52:33;;;;;;;3.10;2.90;;;;;;;;;;5055297;28;20255;-73
2023/04/25 03:55:00;;;;;;;3.27;2.63;;;;;;;;;;5072190;28;20275;-74
2023/04/25 03:57:27;;;;;;;4.23;3.30;;;;;;;;;;5072252;28;20292;-74
2023/04/25 03:59:55;;;;;;;5.63;3.23;;;;;;;;;;5072768;28;20882;-74
2023/04/25 04:02:22;;;;;;;4.73;3.40;;;;;;;;;;5073020;28;20678;-74
2023/04/25 04:04:50;;;;;;;4.30;3.37;;;;;;;;;;5071885;28;20205;-73
2023/04/25 04:07:17;;;;;;;3.43;3.00;;;;;;;;;;5072171;28;20292;-74
2023/04/25 04:09:45;;;;;;;3.17;2.87;;;;;;;;;;5071695;28;20230;-74
2023/04/25 04:12:12;;;;;;;3.90;3.33;;;;;;;;;;5071267;28;20297;-73
2023/04/25 04:14:39;;;;;;;3.63;3.17;;;;;;;;;;5071533;28;20236;-74
2023/04/25 04:17:07;;;;;;;4.93;3.40;;;;;;;;;;5053746;28;20632;-72
2023/04/25 04:19:34;;;;;;;4.27;3.37;;;;;;;;;;5071188;28;20222;-74
2023/04/25 04:22:01;;;;;;;3.47;3.17;;;;;;;;;;5070909;28;20214;-74
2023/04/25 04:24:28;;;;;;;4.83;3.23;;;;;;;;;;5071271;28;20201;-75
2023/04/25 04:26:56;;;;;;;3.57;3.20;;;;;;;;;;5071182;28;20288;-74
2023/04/25 04:29:24;;;;;;;4.77;3.10;;;;;;;;;;5071112;28;20225;-74
2023/04/25 04:31:52;;;;;;;4.67;3.33;;;;;;;;;;5070595;28;20236;-74
2023/04/25 04:34:20;;;;;;;4.87;3.40;;;;;;;;;;5070809;28;20205;-74
2023/04/25 04:36:47;;;;;;;3.67;3.37;;;;;;;;;;5070837;28;20293;-74
2023/04/25 04:39:14;;;;;;;5.67;3.50;;;;;;;;;;5071056;28;20221;-74
2023/04/25 04:41:42;;;;;;;5.00;3.40;;;;;;;;;;5070253;28;20213;-75
2023/04/25 04:44:10;;;;;;;3.90;3.33;;;;;;;;;;5070835;28;20240;-74
2023/04/25 04:46:41;;;;;;;4.17;3.37;;;;;;;;;;5070804;28;20691;-74
2023/04/25 04:49:09;;;;;;;3.67;3.23;;;;;;;;;;5071192;28;20776;-74
2023/04/25 04:51:37;;;;;;;3.73;3.40;;;;;;;;;;5070905;28;20698;-73
2023/04/25 04:54:05;;;;;;;5.07;3.47;;;;;;;;;;5070892;28;20236;-74
2023/04/25 04:56:32;;;;;;;6.50;3.97;;;;;;;;;;5070329;28;20221;-74
2023/04/25 04:59:01;;;;;;;4.33;3.53;;;;;;;;;;5070544;28;20256;-72
2023/04/25 05:01:30;;;;;;;4.10;3.70;;;;;;;;;;5070552;28;20743;-74
2023/04/25 05:04:00;;;;;;;3.90;3.40;;;;;;;;;;5070742;28;20660;-73
2023/04/25 05:06:31;;;;;;;3.90;3.50;;;;;;;;;;5070413;28;20233;-74
2023/04/25 05:08:59;;;;;;;4.33;3.63;;;;;;;;;;5052584;28;20251;-74
2023/04/25 05:11:27;;;;;;;4.63;3.60;;;;;;;;;;5071135;28;20300;-74
2023/04/25 05:13:54;;;;;;;3.93;3.47;;;;;;;;;;5070264;28;20205;-74
2023/04/25 05:16:21;;;;;;;5.90;3.90;;;;;;;;;;5070528;28;20592;-75
2023/04/25 05:18:49;;;;;;;3.97;3.57;;;;;;;;;;5061636;28;20570;-74
2023/04/25 05:21:16;;;;;;;4.73;3.30;;;;;;;;;;5069915;28;20590;-73
2023/04/25 05:23:46;;;;;;;5.67;3.90;;;;;;;;;;5070031;28;20238;-73
2023/04/25 05:26:14;;;;;;;4.70;3.57;;;;;;;;;;5070167;28;20205;-73
2023/04/25 05:28:42;;;;;;;6.50;3.63;;;;;;;;;;5069779;28;20201;-73
2023/04/25 05:31:12;;;;;;;5.50;3.47;;;;;;;;;;5070271;28;20216;-74
2023/04/25 05:33:39;;;;;;;4.33;3.40;;;;;;;;;;5070876;28;20901;-74
2023/04/25 05:36:07;;;;;;;3.37;2.70;;;;;;;;;;5069790;28;20233;-74
2023/04/25 05:38:34;;;;;;;5.20;3.23;;;;;;;;;;5069714;28;20208;-74
2023/04/25 05:41:02;;;;;;;4.43;3.73;;;;;;;;;;5070319;28;20698;-74
2023/04/25 05:43:29;;;;;;;3.37;3.00;;;;;;;;;;5070078;28;20244;-74
2023/04/25 05:45:56;;;;;;;4.67;3.33;;;;;;;;;;5052130;28;20201;-74
2023/04/25 05:48:23;;;;;;;4.30;3.17;;;;;;;;;;5075966;28;20202;-74
2023/04/25 05:50:51;;;;;;;3.23;2.90;;;;;;;;;;5069686;28;20221;-73
2023/04/25 05:53:19;;;;;;;4.30;2.90;;;;;;;;;;5069437;28;20351;-74
2023/04/25 05:55:47;;;;;;;3.13;2.90;;;;;;;;;;5069842;28;20317;-74
2023/04/25 05:58:14;;;;;;;5.50;3.27;;;;;;;;;;5069799;28;20284;-74
2023/04/25 06:00:41;;;;;;;7.20;3.23;;;;;;;;;;5069395;28;20221;-74
2023/04/25 06:03:14;;;;;;;5.07;3.60;;;;;;;;;;5069810;28;20285;-73
2023/04/25 06:05:45;;;;;;;4.53;3.20;;;;;;;;;;5069316;28;20200;-74
2023/04/25 06:08:13;;;;;;;3.87;3.50;;;;;;;;;;5069402;28;20352;-73
2023/04/25 06:10:40;;;;;;;3.83;2.83;;;;;;;;;;5069509;28;20312;-74
2023/04/25 06:13:07;;;;;;;5.10;3.37;;;;;;;;;;5069293;28;20290;-74
2023/04/25 06:15:34;;;;;;;7.03;3.47;;;;;;;;;;5069355;28;20330;-74
2023/04/25 06:18:02;;;;;;;3.87;3.27;;;;;;;;;;5051290;28;20202;-74
2023/04/25 06:20:30;;;;;;;3.27;2.97;;;;;;;;;;5069065;28;20259;-74
2023/04/25 06:22:57;;;;;;;4.17;2.97;;;;;;;;;;5051100;28;20678;-73
2023/04/25 06:25:24;;;;;;;2.97;2.77;;;;;;;;;;5069490;28;20205;-74
2023/04/25 06:27:52;;;;;;;3.60;2.80;;;;;;;;;;5068910;28;20205;-73
2023/04/25 06:30:22;;;;;;;3.20;2.90;;;;;;;;;;5068905;28;20320;-73
2023/04/25 06:32:49;;;;;;;3.57;2.90;;;;;;;;;;5069248;28;20221;-74
2023/04/25 06:35:17;;;;;;;3.83;2.77;;;;;;;;;;5069143;28;20702;-74
2023/04/25 06:37:44;;;;;;;3.70;2.50;;;;;;;;;;5051450;28;20736;-73
2023/04/25 06:40:11;;;;;;;6.17;2.67;;;;;;;;;;5069293;28;20308;-74
2023/04/25 06:42:38;;;;;;;3.07;2.40;;;;;;;;;;5069228;28;20706;-74
2023/04/25 06:45:06;;;;;;;2.60;2.40;;;;;;;;;;5069118;28;20198;-74
2023/04/25 06:47:33;;;;;;;6.20;2.50;;;;;;;;;;5069333;28;20308;-74
2023/04/25 06:50:00;;;;;;;4.07;2.50;;;;;;;;;;5068784;28;20226;-74
2023/04/25 06:52:28;;;;;;;2.83;2.40;;;;;;;;;;5069067;28;20205;-74
2023/04/25 06:54:55;;;;;;;2.83;2.33;;;;;;;;;;5069393;28;20252;-75
2023/04/25 06:57:23;;;;;;;3.07;2.17;;;;;;;;;;5068855;28;20202;-74
2023/04/25 06:59:50;;;;;;;3.97;2.30;;;;;;;;;;5051245;28;20226;-74
2023/04/25 07:02:17;;;;;;;2.90;2.20;;;;;;;;;;5069234;28;20243;-74
2023/04/25 07:04:46;;;;;;;4.20;2.70;;;;;;;;;;5068568;28;20209;-73
2023/04/25 07:07:13;;;;;;;2.83;2.63;;;;;;;;;;5068679;28;20210;-74
2023/04/25 07:09:40;;;;;;;3.60;2.50;;;;;;;;;;5068583;28;20279;-75
2023/04/25 07:12:08;;;;;;;5.13;2.67;;;;;;;;;;5067144;28;20205;-74
2023/04/25 07:14:35;;;;;;;3.07;2.77;;;;;;;;;;5067517;28;20663;-74
2023/04/25 07:17:02;;;;;;;3.70;2.70;;;;;;;;;;5067026;28;20308;-75
2023/04/25 07:19:30;;;;;;;3.73;2.70;;;;;;;;;;5069643;28;20879;-74
2023/04/25 07:21:57;;;;;;;3.33;2.60;;;;;;;;;;5080724;28;20248;-74
2023/04/25 07:24:24;;;;;;;3.70;2.73;;;;;;;;;;5091295;28;20679;-74
2023/04/25 07:26:51;;;;;;;3.57;2.40;;;;;;;;;;5091533;28;20292;-75
2023/04/25 07:29:19;;;;;;;3.17;2.37;;;;;;;;;;5090712;28;20256;-75
2023/04/25 07:31:46;;;;;;;9.23;2.70;;;;;;;;;;5079722;28;20216;-73
2023/04/25 07:34:13;;;;;;;3.47;2.57;;;;;;;;;;5089228;28;20201;-75
2023/04/25 07:36:40;;;;;;;4.13;2.67;;;;;;;;;;5073130;28;20889;-75
2023/04/25 07:39:09;;;;;;;4.30;2.40;;;;;;;;;;5078183;28;20768;-75
2023/04/25 07:41:36;;;;;;;2.60;2.37;;;;;;;;;;5052720;28;20205;-75
2023/04/25 07:44:03;;;;;;;4.83;3.90;;;;;;;;;;5070027;28;20209;-75
2023/04/25 07:46:31;;;;;;;3.23;2.57;;;;;;;;;;5074381;28;20251;-75
2023/04/25 07:48:58;;;;;;;3.03;2.60;;;;;;;;;;5086742;28;20313;-75
2023/04/25 07:51:25;;;;;;;2.70;2.47;;;;;;;;;;5090814;28;20283;-75
2023/04/25 07:53:53;;;;;;;3.77;3.00;;;;;;;;;;5090211;28;20212;-75
2023/04/25 07:56:20;;;;;;;3.53;2.83;;;;;;;;;;5058306;28;20730;-75
2023/04/25 07:58:47;;;;;;;3.77;2.90;;;;;;;;;;5051789;28;20237;-74
2023/04/25 08:01:14;;;;;;;5.63;3.00;;;;;;;;;;5068450;28;20202;-75
2023/04/25 08:03:42;;;;;;;4.93;2.70;;;;;;;;;;5080352;28;20239;-75
2023/04/25 08:06:10;;;;;;;3.97;3.27;;;;;;;;;;5090113;28;20671;-75
2023/04/25 08:08:37;;;;;;;5.63;3.20;;;;;;;;;;5089625;28;20208;-75
2023/04/25 08:11:05;;;;;;;4.50;3.17;;;;;;;;;;5090031;28;20209;-76
2023/04/25 08:13:32;;;;;;;3.27;2.97;;;;;;;;;;5074759;28;20240;-75
2023/04/25 08:15:59;;;;;;;4.20;2.90;;;;;;;;;;5051946;28;20644;-74
2023/04/25 08:18:26;;;;;;;5.10;2.90;;;;;;;;;;5069212;28;20275;-74
2023/04/25 08:20:54;;;;;;;3.00;2.80;;;;;;;;;;5069423;28;20659;-75
2023/04/25 08:23:21;;;;;;;4.47;3.00;;;;;;;;;;5070470;28;20197;-75
2023/04/25 08:25:49;;;;;;;4.20;3.40;;;;;;;;;;5069683;28;20789;-75
2023/04/25 08:28:16;;;;;;;5.87;2.97;;;;;;;;;;5068976;28;20675;-75
2023/04/25 08:30:43;;;;;;;3.97;2.93;;;;;;;;;;5068842;28;20238;-75
2023/04/25 08:33:10;;;;;;;4.70;3.23;;;;;;;;;;5073724;28;20205;-75
2023/04/25 08:35:38;;;;;;;6.57;3.40;;;;;;;;;;5089800;28;20227;-74
2023/04/25 08:38:06;;;;;;;3.87;3.03;;;;;;;;;;5088602;28;20701;-75
2023/04/25 08:40:35;;;;;;;3.80;2.90;;;;;;;;;;5089731;28;20312;-74
2023/04/25 08:43:03;;;;;;;4.10;3.03;;;;;;;;;;5071635;28;20770;-74
2023/04/25 08:45:32;;;;;;;3.30;2.60;;;;;;;;;;5071433;28;20233;-74
2023/04/25 08:48:01;;;;;;;2.30;2.10;;;;;;;;;;5077618;28;20855;-74
2023/04/25 08:50:30;;;;;;;3.43;2.80;;;;;;;;;;5089118;28;20232;-75
2023/04/25 08:53:01;;;;;;;4.87;2.70;;;;;;;;;;5077831;28;20608;-74
2023/04/25 08:55:29;;;;;;;2.90;1.90;;;;;;;;;;5088386;28;20227;-74
2023/04/25 08:57:56;;;;;;;5.20;3.57;;;;;;;;;;5089054;28;20609;-73
2023/04/25 09:00:24;;;;;;;7.33;5.10;;;;;;;;;;5088837;28;20220;-74
2023/04/25 09:02:51;;;;;;;10.10;6.90;;;;;;;;;;5071620;28;20227;-74
2023/04/25 09:05:22;;;;;;;5.73;4.00;;;;;;;;;;5068385;28;20561;-74
2023/04/25 09:07:50;;;;;;;4.77;2.80;;;;;;;;;;5068258;28;20205;-74
2023/04/25 09:10:17;;;;;;;3.23;2.80;;;;;;;;;;5068589;28;20312;-74
2023/04/25 09:12:45;;;;;;;3.43;2.77;;;;;;;;;;5068884;28;20304;-74
2023/04/25 09:15:13;;;;;;;2.87;2.67;;;;;;;;;;5068426;28;20233;-74
2023/04/25 09:17:55;;;;;;;2.83;2.57;;;;;;;;;;5068079;28;20229;-74
2023/04/25 09:20:22;;;;;;;3.50;2.70;;;;;;;;;;5067970;28;20233;-75
2023/04/25 09:22:50;;;;;;;2.57;2.37;;;;;;;;;;5068722;28;20296;-74
2023/04/25 09:25:17;;;;;;;2.60;2.40;;;;;;;;;;5068646;28;20224;-74
2023/04/25 09:27:51;;;;;;;3.00;2.70;;;;;;;;;;5068500;28;20570;-72
2023/04/25 09:30:19;;;;;;;2.83;2.53;;;;;;;;;;5068291;28;20316;-74
2023/04/25 09:32:47;;;;;;;4.57;2.63;;;;;;;;;;5062035;28;20209;-74
2023/04/25 09:35:24;;;;;;;2.37;2.03;;;;;;;;;;5067922;28;20579;-74
2023/04/25 09:37:52;;;;;;;1.80;1.70;;;;;;;;;;5061444;28;20232;-74
2023/04/25 09:40:19;;;;;;;2.00;1.90;;;;;;;;;;5068067;28;20316;-74
2023/04/25 09:42:46;;;;;;;1.77;1.67;;;;;;;;;;5066846;28;20204;-75
2023/04/25 09:45:14;;;;;;;1.30;1.30;;;;;;;;;;5067890;28;20205;-74
2023/04/25 09:47:43;;;;;;;1.63;1.43;;;;;;;;;;5064257;28;20209;-74
2023/04/25 09:50:19;;;;;;;3.90;1.40;;;;;;;;;;5067911;28;20232;-73
2023/04/25 09:53:02;;;;;;;1.80;1.70;;;;;;;;;;5064257;28;20198;-74
2023/04/25 09:55:30;;;;;;;1.93;1.83;;;;;;;;;;5067066;28;20209;-74
2023/04/25 09:58:01;;;;;;;1.80;1.70;;;;;;;;;;5067069;28;20221;-74
2023/04/25 10:00:29;;;;;;;1.60;1.50;;;;;;;;;;5068122;28;20225;-74
2023/04/25 10:02:57;;;;;;;1.60;1.60;;;;;;;;;;5067943;28;20202;-73
2023/04/25 10:05:25;;;;;;;1.37;1.33;;;;;;;;;;5067428;28;20193;-74
2023/04/25 10:07:53;;;;;;;4.77;3.93;;;;;;;;;;5067432;28;20324;-73
2023/04/25 10:10:25;;;;;;;2.00;1.90;;;;;;;;;;5068300;28;20261;-73
2023/04/25 10:12:53;;;;;;;2.17;2.07;;;;;;;;;;5067574;28;20201;-73
2023/04/25 10:15:21;;;;;;;1.40;1.40;;;;;;;;;;5068209;28;20201;-74
2023/04/25 10:17:50;;;;;;;1.40;1.40;;;;;;;;;;5067193;28;20699;-74
2023/04/25 10:20:18;;;;;;;2.10;2.00;;;;;;;;;;5067235;28;20227;-74
2023/04/25 10:22:47;;;;;;;1.30;1.30;;;;;;;;;;5067855;28;20252;-74
2023/04/25 10:25:15;;;;;;;1.13;1.13;;;;;;;;;;5067886;28;20218;-73
2023/04/25 10:27:43;;;;;;;1.10;1.10;;;;;;;;;;5067075;28;20209;-73
2023/04/25 10:30:12;;;;;;;1.20;1.20;;;;;;;;;;5043955;28;20299;-73
2023/04/25 10:32:39;;;;;;;1.00;1.00;;;;;;;;;;5061195;28;20683;-74
2023/04/25 10:35:13;;;;;;;0.90;0.90;;;;;;;;;;5067203;28;20201;-74
2023/04/25 10:37:58;;;;;;;0.80;0.80;;;;;;;;;;5067472;28;20229;-74
2023/04/25 10:40:26;;;;;;;0.80;0.80;;;;;;;;;;5067640;28;20221;-74
2023/04/25 10:42:56;;;;;;;2.30;2.10;;;;;;;;;;5066922;28;20292;-75
2023/04/25 10:45:24;;;;;;;1.17;1.17;;;;;;;;;;5066510;28;20190;-74
2023/04/25 10:47:51;;;;;;;1.00;1.00;;;;;;;;;;5066393;28;20739;-73
2023/04/25 10:50:18;;;;;;;2.53;0.80;;;;;;;;;;5047875;28;20237;-74
2023/04/25 10:52:46;;;;;;;0.80;0.80;;;;;;;;;;5048294;28;20256;-74
2023/04/25 10:55:13;;;;;;;1.13;0.70;;;;;;;;;;5051794;28;20301;-74
2023/04/25 10:57:48;;;;;;;0.80;0.80;;;;;;;;;;5050691;28;20368;-73
2023/04/25 11:00:20;;;;;;;0.70;0.70;;;;;;;;;;5051344;28;20252;-74
2023/04/25 11:02:51;;;;;;;1.00;1.00;;;;;;;;;;5065164;28;20292;-74
2023/04/25 11:05:25;;;;;;;0.87;0.87;;;;;;;;;;5070945;28;20205;-74
2023/04/25 11:07:56;;;;;;;0.80;0.80;;;;;;;;;;5070425;28;20301;-73
2023/04/25 11:10:36;;;;;;;0.90;0.90;;;;;;;;;;5071602;28;20299;-73
2023/04/25 11:13:04;;;;;;;1.00;0.90;;;;;;;;;;5070070;28;20210;-73
2023/04/25 11:15:32;;;;;;;0.97;0.97;;;;;;;;;;5071111;28;20240;-73
2023/04/25 11:18:00;;;;;;;0.80;0.80;;;;;;;;;;5070100;28;20221;-74
2023/04/25 11:20:28;;;;;;;0.80;0.80;;;;;;;;;;5069484;28;20244;-73
2023/04/25 11:22:58;;;;;;;1.00;1.00;;;;;;;;;;5070870;28;20213;-73
2023/04/25 11:25:26;;;;;;;0.90;0.90;;;;;;;;;;5071591;28;20229;-74
2023/04/25 11:27:53;;;;;;;0.80;0.80;;;;;;;;;;5068517;28;20233;-74
2023/04/25 11:30:21;;;;;;;0.70;0.70;;;;;;;;;;5070548;28;20255;-72
2023/04/25 11:32:49;;;;;;;0.70;0.70;;;;;;;;;;5064311;28;20314;-73
2023/04/25 11:35:17;;;;;;;0.80;0.80;;;;;;;;;;5069396;28;20617;-74
2023/04/25 11:37:44;;;;;;;1.10;1.10;;;;;;;;;;5070260;28;20237;-72
2023/04/25 11:40:12;;;;;;;1.03;1.03;;;;;;;;;;5071017;28;20304;-74
2023/04/25 11:42:40;;;;;;;0.80;0.80;;;;;;;;;;5070890;28;20285;-73
2023/04/25 11:45:07;;;;;;;0.87;0.87;;;;;;;;;;5070045;28;20285;-74
2023/04/25 11:47:35;;;;;;;0.90;0.90;;;;;;;;;;5067123;28;20201;-74
2023/04/25 11:50:04;;;;;;;2.20;1.90;;;;;;;;;;5065096;28;20229;-75
2023/04/25 11:52:42;;;;;;;0.70;0.70;;;;;;;;;;5068901;28;20236;-74
2023/04/25 11:55:10;;;;;;;0.90;0.90;;;;;;;;;;5070217;28;20300;-74
2023/04/25 11:57:42;;;;;;;0.90;0.90;;;;;;;;;;5070225;28;20222;-75
2023/04/25 12:00:13;;;;;;;0.90;0.90;;;;;;;;;;5070360;28;20312;-74
2023/04/25 12:02:45;;;;;;;0.70;0.70;;;;;;;;;;5063936;28;20838;-74
2023/04/25 12:05:13;;;;;;;0.83;0.83;;;;;;;;;;5069155;28;20197;-74
2023/04/25 12:07:57;;;;;;;0.80;0.80;;;;;;;;;;5070030;28;20189;-74
2023/04/25 12:10:28;;;;;;;0.80;0.80;;;;;;;;;;5069959;28;20233;-74
2023/04/25 12:12:55;;;;;;;2.03;0.90;;;;;;;;;;5069768;28;20239;-73
2023/04/25 12:15:26;;;;;;;3.73;3.43;;;;;;;;;;5070662;28;20314;-74
2023/04/25 12:17:54;;;;;;;2.23;2.03;;;;;;;;;;5069657;28;20308;-73
2023/04/25 12:20:25;;;;;;;1.77;1.67;;;;;;;;;;5069564;28;20237;-74
2023/04/25 12:22:53;;;;;;;2.03;1.83;;;;;;;;;;5070176;28;20613;-73
2023/04/25 12:25:37;;;;;;;2.93;2.57;;;;;;;;;;5069378;28;20210;-73
2023/04/25 12:28:15;;;;;;;1.97;1.87;;;;;;;;;;5069179;28;20644;-74
2023/04/25 12:31:01;;;;;;;2.00;1.90;;;;;;;;;;5069426;28;20229;-74
2023/04/25 12:33:30;;;;;;;0.80;0.80;;;;;;;;;;5069039;28;20210;-74
2023/04/25 12:35:58;;;;;;;0.80;0.80;;;;;;;;;;5068030;28;20205;-74
2023/04/25 12:38:26;;;;;;;0.90;0.90;;;;;;;;;;5069199;28;20221;-73
2023/04/25 12:40:55;;;;;;;0.90;0.90;;;;;;;;;;5069635;28;20283;-74
2023/04/25 12:43:22;;;;;;;0.93;0.93;;;;;;;;;;5069698;28;20251;-74
2023/04/25 12:45:50;;;;;;;1.10;1.10;;;;;;;;;;5066586;28;20660;-74
2023/04/25 12:48:18;;;;;;;1.10;1.10;;;;;;;;;;5068529;28;20198;-75
2023/04/25 12:50:47;;;;;;;1.20;1.20;;;;;;;;;;5069343;28;20252;-73
2023/04/25 12:53:18;;;;;;;1.30;1.30;;;;;;;;;;5069309;28;20220;-73
2023/04/25 12:55:46;;;;;;;1.77;1.67;;;;;;;;;;5069138;28;20300;-74
2023/04/25 12:58:17;;;;;;;2.90;2.70;;;;;;;;;;5069106;28;20222;-74
2023/04/25 13:00:45;;;;;;;3.00;2.80;;;;;;;;;;5068683;28;20259;-74
2023/04/25 13:03:12;;;;;;;2.17;2.07;;;;;;;;;;5062652;28;20209;-74
2023/04/25 13:05:41;;;;;;;4.10;3.37;;;;;;;;;;5068763;28;20227;-73
2023/04/25 13:08:08;;;;;;;2.33;2.10;;;;;;;;;;5068904;28;20218;-74
2023/04/25 13:10:38;;;;;;;6.07;3.50;;;;;;;;;;5068939;28;20252;-74
2023/04/25 13:13:05;;;;;;;6.07;3.50;;;;;;;;;;5068718;28;20304;-73
2023/04/25 13:15:32;;;;;;;1.40;1.40;;;;;;;;;;5068578;28;20256;-74
2023/04/25 13:17:59;;;;;;;1.17;1.17;;;;;;;;;;5068572;28;20225;-75
2023/04/25 13:20:27;;;;;;;1.07;1.07;;;;;;;;;;5068346;28;20229;-74
2023/04/25 13:22:55;;;;;;;1.40;1.40;;;;;;;;;;5068907;28;20885;-74
2023/04/25 13:25:22;;;;;;;1.30;1.30;;;;;;;;;;5068705;28;20197;-74
2023/04/25 13:27:49;;;;;;;1.90;1.80;;;;;;;;;;5068279;28;20206;-74
2023/04/25 13:30:17;;;;;;;1.40;1.37;;;;;;;;;;5068447;28;20313;-74
2023/04/25 13:32:44;;;;;;;1.40;1.40;;;;;;;;;;5061761;28;20209;-74
2023/04/25 13:35:13;;;;;;;1.57;1.57;;;;;;;;;;5068375;28;20209;-75
2023/04/25 13:37:41;;;;;;;2.13;2.03;;;;;;;;;;5068050;28;20232;-75
2023/04/25 13:40:10;;;;;;;1.90;1.80;;;;;;;;;;5067892;28;20308;-73
2023/04/25 13:42:39;;;;;;;2.10;2.00;;;;;;;;;;5068672;28;20243;-75
2023/04/25 13:45:06;;;;;;;2.00;1.90;;;;;;;;;;5066608;28;20201;-75
2023/04/25 13:47:35;;;;;;;1.80;1.70;;;;;;;;;;5067772;28;20288;-75
2023/04/25 13:50:03;;;;;;;5.53;4.07;;;;;;;;;;5068576;28;20308;-74
2023/04/25 13:52:30;;;;;;;2.17;2.07;;;;;;;;;;5068843;28;20210;-75
2023/04/25 13:54:58;;;;;;;2.20;2.10;;;;;;;;;;5068477;28;20255;-75
2023/04/25 13:57:25;;;;;;;2.10;2.00;;;;;;;;;;5068287;28;20711;-74
2023/04/25 13:59:53;;;;;;;2.63;2.53;;;;;;;;;;5068928;28;20719;-75
2023/04/25 14:02:21;;;;;;;2.90;2.70;;;;;;;;;;5066196;28;20208;-75
2023/04/25 14:04:48;;;;;;;2.37;2.27;;;;;;;;;;5068692;28;20612;-74
2023/04/25 14:07:19;;;;;;;2.53;2.33;;;;;;;;;;5068537;28;20295;-74
2023/04/25 14:09:46;;;;;;;1.97;1.87;;;;;;;;;;5068781;28;20324;-74
2023/04/25 14:12:13;;;;;;;2.17;2.07;;;;;;;;;;5069055;28;20205;-74
2023/04/25 14:14:40;;;;;;;2.60;2.40;;;;;;;;;;5068969;28;20212;-74
2023/04/25 14:17:09;;;;;;;15.47;11.17;;;;;;;;;;5068616;28;20315;-74
2023/04/25 14:19:38;;;;;;;11.23;9.43;;;;;;;;;;5068835;28;20707;-74
2023/04/25 14:22:05;;;;;;;6.73;5.10;;;;;;;;;;5068329;28;20642;-74
2023/04/25 14:24:33;;;;;;;6.10;5.50;;;;;;;;;;5068690;28;20221;-75
2023/04/25 14:27:00;;;;;;;3.73;3.50;;;;;;;;;;5068579;28;20296;-74
2023/04/25 14:29:28;;;;;;;3.63;3.33;;;;;;;;;;5072317;28;20221;-74
2023/04/25 14:31:57;;;;;;;3.47;3.27;;;;;;;;;;5066216;28;20210;-75
2023/04/25 14:34:24;;;;;;;3.97;3.20;;;;;;;;;;5071812;28;20232;-75
2023/04/25 14:36:52;;;;;;;3.57;3.33;;;;;;;;;;5072720;28;20225;-72
2023/04/25 14:39:19;;;;;;;3.90;3.60;;;;;;;;;;5072692;28;20222;-73
2023/04/25 14:41:47;;;;;;;3.60;3.30;;;;;;;;;;5055043;28;20614;-74
2023/04/25 14:44:15;;;;;;;3.50;3.30;;;;;;;;;;5070772;28;20225;-73
2023/04/25 14:46:42;;;;;;;3.83;3.53;;;;;;;;;;5071849;28;20276;-74
2023/04/25 14:49:09;;;;;;;3.23;3.03;;;;;;;;;;5071126;28;20717;-74